createdAt,value
2017-11-16T00:00:35.812Z,27.02
2017-11-16T00:03:04.033Z,26.17
2017-11-16T00:05:31.467Z,27.00
2017-11-16T00:07:58.951Z,27.02
2017-11-16T00:10:26.394Z,27.23
2017-11-16T00:12:53.853Z,27.80
2017-11-16T00:15:21.291Z,28.40
2017-11-16T00:17:48.740Z,29.58
2017-11-16T00:20:16.177Z,29.65
2017-11-16T00:22:43.631Z,29.10
2017-11-16T00:25:11.839Z,30.63
2017-11-16T00:27:39.293Z,32.17
2017-11-16T00:30:06.732Z,33.10
2017-11-16T00:32:34.175Z,35.10
2017-11-16T00:35:02.380Z,34.05
2017-11-16T00:37:29.835Z,35.20
2017-11-16T00:39:57.271Z,38.57
2017-11-16T00:42:24.732Z,39.63
2017-11-16T00:44:52.188Z,40.35
2017-11-16T00:47:19.656Z,42.85
2017-11-16T00:49:47.091Z,44.97
2017-11-16T00:52:14.547Z,43.53
2017-11-16T00:54:42.006Z,42.47
2017-11-16T00:57:09.463Z,45.30
2017-11-16T00:59:36.940Z,43.05
2017-11-16T01:02:04.390Z,44.88
2017-11-16T01:04:31.848Z,46.92
2017-11-16T01:06:59.299Z,47.35
2017-11-16T01:09:26.764Z,46.80
2017-11-16T01:11:54.208Z,46.83
2017-11-16T01:14:21.663Z,46.60
2017-11-16T01:16:49.109Z,44.85
2017-11-16T01:19:17.333Z,45.70
2017-11-16T01:21:44.781Z,49.60
2017-11-16T01:24:12.247Z,45.25
2017-11-16T01:26:39.696Z,48.03
2017-11-16T01:29:07.144Z,45.70
2017-11-16T01:31:34.591Z,45.85
2017-11-16T01:34:02.048Z,48.45
2017-11-16T01:36:29.516Z,47.55
2017-11-16T01:38:56.960Z,46.03
2017-11-16T01:41:24.427Z,48.35
2017-11-16T01:43:51.881Z,49.03
2017-11-16T01:46:19.334Z,47.15
2017-11-16T01:48:46.791Z,46.97
2017-11-16T01:51:14.233Z,47.90
2017-11-16T01:53:41.664Z,46.30
2017-11-16T01:56:09.879Z,47.60
2017-11-16T01:58:37.336Z,47.80
2017-11-16T02:01:08.820Z,48.42
2017-11-16T02:03:36.274Z,49.67
2017-11-16T02:06:03.715Z,48.57
2017-11-16T02:08:31.196Z,46.63
2017-11-16T02:10:58.632Z,46.13
2017-11-16T02:13:26.087Z,46.30
2017-11-16T02:15:53.535Z,46.13
2017-11-16T02:18:20.988Z,46.58
2017-11-16T02:20:48.449Z,46.75
2017-11-16T02:23:15.875Z,45.70
2017-11-16T02:25:43.327Z,47.47
2017-11-16T02:28:10.752Z,44.88
2017-11-16T02:30:38.963Z,46.90
2017-11-16T02:33:06.429Z,42.85
2017-11-16T02:35:33.871Z,43.17
2017-11-16T02:38:01.325Z,44.15
2017-11-16T02:40:28.768Z,42.92
2017-11-16T02:42:56.220Z,42.80
2017-11-16T02:45:24.456Z,42.38
2017-11-16T02:47:51.895Z,44.00
2017-11-16T02:50:19.335Z,44.33
2017-11-16T02:52:46.770Z,44.70
2017-11-16T02:55:14.226Z,44.85
2017-11-16T02:57:41.673Z,43.93
2017-11-16T03:00:09.880Z,44.83
2017-11-16T03:02:37.334Z,45.97
2017-11-16T03:05:04.769Z,46.30
2017-11-16T03:07:32.221Z,43.95
2017-11-16T03:10:00.440Z,47.17
2017-11-16T03:12:27.883Z,45.10
2017-11-16T03:14:56.109Z,45.55
2017-11-16T03:17:24.335Z,44.80
2017-11-16T03:19:51.788Z,44.45
2017-11-16T03:22:19.219Z,44.45
2017-11-16T03:24:46.672Z,45.63
2017-11-16T03:27:14.122Z,45.37
2017-11-16T03:29:41.563Z,43.28
2017-11-16T03:32:09.007Z,43.10
2017-11-16T03:34:36.449Z,42.25
2017-11-16T03:37:03.903Z,44.92
2017-11-16T03:39:31.327Z,43.80
2017-11-16T03:41:58.800Z,45.92
2017-11-16T03:44:26.245Z,44.47
2017-11-16T03:46:53.691Z,41.92
2017-11-16T03:49:21.140Z,41.35
2017-11-16T03:51:48.600Z,40.42
2017-11-16T03:54:16.040Z,42.23
2017-11-16T03:56:43.508Z,40.17
2017-11-16T03:59:10.968Z,38.95
2017-11-16T04:01:38.483Z,38.50
2017-11-16T04:04:05.911Z,40.30
2017-11-16T04:06:33.352Z,40.78
2017-11-16T04:09:00.807Z,37.15
2017-11-16T04:11:28.276Z,37.40
2017-11-16T04:13:55.737Z,38.08
2017-11-16T04:16:23.168Z,36.55
2017-11-16T04:18:50.624Z,35.95
2017-11-16T04:21:18.100Z,35.38
2017-11-16T04:23:45.534Z,36.75
2017-11-16T04:26:12.982Z,36.05
2017-11-16T04:28:40.412Z,34.28
2017-11-16T04:31:08.636Z,35.40
2017-11-16T04:33:36.081Z,35.42
2017-11-16T04:36:03.548Z,35.50
2017-11-16T04:38:30.981Z,33.47
2017-11-16T04:40:58.437Z,34.13
2017-11-16T04:43:25.871Z,32.38
2017-11-16T04:45:54.116Z,31.70
2017-11-16T04:48:21.551Z,32.70
2017-11-16T04:50:49.054Z,32.70
2017-11-16T04:53:17.261Z,32.45
2017-11-16T04:55:44.683Z,32.08
2017-11-16T04:58:12.906Z,31.50
2017-11-16T05:00:40.352Z,34.25
2017-11-16T05:03:07.808Z,32.13
2017-11-16T05:05:35.254Z,32.25
2017-11-16T05:08:02.719Z,33.22
2017-11-16T05:10:30.147Z,32.67
2017-11-16T05:12:58.379Z,32.35
2017-11-16T05:15:25.820Z,33.90
2017-11-16T05:17:53.269Z,30.73
2017-11-16T05:20:20.696Z,32.85
2017-11-16T05:22:48.147Z,29.90
2017-11-16T05:25:16.347Z,29.87
2017-11-16T05:27:43.783Z,29.55
2017-11-16T05:30:11.240Z,28.90
2017-11-16T05:32:39.449Z,30.10
2017-11-16T05:35:06.883Z,34.00
2017-11-16T05:37:34.369Z,34.42
2017-11-16T05:40:01.807Z,32.57
2017-11-16T05:42:29.256Z,35.20
2017-11-16T05:44:56.705Z,33.33
2017-11-16T05:47:24.153Z,34.15
2017-11-16T05:49:51.603Z,33.92
2017-11-16T05:52:19.048Z,33.22
2017-11-16T05:54:46.491Z,32.50
2017-11-16T05:57:14.711Z,35.92
2017-11-16T05:59:42.151Z,33.20
2017-11-16T06:02:09.592Z,35.03
2017-11-16T06:04:37.060Z,35.17
2017-11-16T06:07:04.495Z,33.05
2017-11-16T06:09:31.943Z,34.03
2017-11-16T06:11:59.385Z,35.67
2017-11-16T06:14:26.857Z,34.22
2017-11-16T06:16:54.300Z,32.40
2017-11-16T06:19:21.776Z,34.40
2017-11-16T06:21:49.217Z,33.38
2017-11-16T06:24:16.688Z,34.40
2017-11-16T06:26:44.143Z,33.40
2017-11-16T06:29:11.627Z,32.30
2017-11-16T06:31:39.061Z,31.15
2017-11-16T06:34:07.274Z,31.58
2017-11-16T06:36:34.733Z,31.42
2017-11-16T06:39:02.173Z,32.67
2017-11-16T06:41:29.619Z,33.50
2017-11-16T06:43:57.075Z,32.42
2017-11-16T06:46:25.164Z,33.40
2017-11-16T06:48:52.607Z,33.47
2017-11-16T06:51:20.064Z,35.92
2017-11-16T06:53:47.530Z,35.65
2017-11-16T06:56:14.980Z,33.43
2017-11-16T06:58:42.425Z,33.83
2017-11-16T07:01:10.691Z,34.53
2017-11-16T07:03:38.161Z,33.03
2017-11-16T07:06:05.629Z,32.92
2017-11-16T07:08:33.097Z,33.30
2017-11-16T07:11:00.544Z,32.70
2017-11-16T07:13:28.000Z,35.58
2017-11-16T07:15:55.451Z,33.00
2017-11-16T07:18:22.890Z,32.75
2017-11-16T07:20:50.367Z,30.73
2017-11-16T07:23:17.833Z,30.48
2017-11-16T07:25:45.281Z,28.10
2017-11-16T07:28:12.720Z,28.90
2017-11-16T07:30:40.230Z,29.75
2017-11-16T07:33:07.681Z,29.12
2017-11-16T07:35:35.126Z,29.00
2017-11-16T07:38:02.571Z,28.27
2017-11-16T07:40:30.033Z,28.65
2017-11-16T07:42:57.484Z,28.02
2017-11-16T07:48:15.457Z,27.10
2017-11-16T07:50:42.883Z,29.65
2017-11-16T07:53:10.337Z,28.80
2017-11-16T07:55:37.776Z,30.33
2017-11-16T07:58:05.226Z,28.63
2017-11-16T08:00:33.428Z,29.45
2017-11-16T08:03:00.897Z,27.83
2017-11-16T08:05:28.327Z,28.03
2017-11-16T08:07:55.763Z,29.87
2017-11-16T08:10:24.003Z,29.35
2017-11-16T08:12:51.454Z,28.47
2017-11-16T08:15:18.927Z,26.45
2017-11-16T08:17:46.388Z,28.48
2017-11-16T08:20:13.844Z,28.02
2017-11-16T08:22:41.313Z,28.90
2017-11-16T08:25:09.524Z,28.40
2017-11-16T08:27:36.963Z,27.17
2017-11-16T08:30:04.435Z,27.42
2017-11-16T08:32:31.875Z,28.77
2017-11-16T08:34:59.320Z,28.35
2017-11-16T08:37:26.779Z,27.67
2017-11-16T08:39:54.986Z,29.80
2017-11-16T08:42:22.428Z,30.00
2017-11-16T08:44:49.883Z,29.40
2017-11-16T08:47:17.521Z,29.67
2017-11-16T08:49:45.720Z,31.00
2017-11-16T08:52:13.167Z,30.83
2017-11-16T08:54:41.373Z,31.70
2017-11-16T08:57:08.812Z,32.50
2017-11-16T08:59:36.305Z,32.78
2017-11-16T09:02:03.723Z,32.53
2017-11-16T09:04:31.173Z,33.53
2017-11-16T09:06:58.621Z,32.42
2017-11-16T09:09:26.091Z,32.83
2017-11-16T09:11:53.556Z,33.70
2017-11-16T09:14:20.997Z,32.38
2017-11-16T09:16:48.467Z,32.08
2017-11-16T09:19:15.924Z,31.80
2017-11-16T09:21:43.365Z,32.88
2017-11-16T09:24:10.823Z,32.92
2017-11-16T09:26:38.272Z,33.00
2017-11-16T09:29:05.756Z,31.45
2017-11-16T09:31:33.210Z,32.10
2017-11-16T09:34:00.657Z,33.83
2017-11-16T09:36:28.122Z,29.67
2017-11-16T09:38:55.579Z,31.23
2017-11-16T09:41:23.027Z,28.87
2017-11-16T09:43:50.479Z,31.70
2017-11-16T09:46:17.948Z,29.42
2017-11-16T09:48:45.396Z,28.67
2017-11-16T09:51:12.847Z,27.80
2017-11-16T09:53:40.303Z,30.55
2017-11-16T09:56:07.759Z,27.75
2017-11-16T09:58:35.237Z,28.00
2017-11-16T10:01:02.703Z,27.75
2017-11-16T10:03:30.162Z,27.67
2017-11-16T10:08:31.532Z,26.42
2017-11-16T10:10:58.996Z,25.65
2017-11-16T10:13:26.477Z,25.10
2017-11-16T10:15:53.956Z,25.95
2017-11-16T10:18:21.414Z,24.85
2017-11-16T10:20:48.888Z,24.35
2017-11-16T10:23:16.337Z,24.05
2017-11-16T10:25:43.826Z,23.38
2017-11-16T10:28:11.286Z,22.10
2017-11-16T10:30:39.552Z,22.33
2017-11-16T10:33:06.980Z,21.70
2017-11-16T10:35:34.458Z,23.40
2017-11-16T10:38:01.921Z,25.00
2017-11-16T10:40:29.374Z,22.45
2017-11-16T10:42:56.827Z,22.40
2017-11-16T10:45:24.264Z,20.95
2017-11-16T10:47:51.745Z,20.73
2017-11-16T10:50:19.216Z,21.05
2017-11-16T10:52:46.656Z,20.63
2017-11-16T10:55:14.114Z,20.42
2017-11-16T10:57:41.585Z,20.98
2017-11-16T11:00:09.121Z,22.60
2017-11-16T11:02:36.633Z,21.47
2017-11-16T11:05:04.078Z,21.98
2017-11-16T11:07:31.524Z,21.33
2017-11-16T11:09:58.990Z,22.73
2017-11-16T11:12:26.456Z,21.00
2017-11-16T11:14:53.895Z,21.40
2017-11-16T11:17:21.347Z,21.20
2017-11-16T11:19:48.825Z,20.37
2017-11-16T11:22:17.063Z,21.40
2017-11-16T11:24:44.543Z,21.90
2017-11-16T11:27:11.988Z,20.88
2017-11-16T11:29:39.487Z,20.30
2017-11-16T11:32:06.932Z,21.80
2017-11-16T11:34:34.445Z,22.70
2017-11-16T11:37:01.890Z,21.08
2017-11-16T11:39:29.389Z,21.23
2017-11-16T11:41:56.837Z,20.48
2017-11-16T11:44:24.284Z,20.85
2017-11-16T11:46:51.792Z,19.55
2017-11-16T11:49:19.225Z,21.30
2017-11-16T11:51:47.456Z,21.37
2017-11-16T11:54:14.928Z,21.35
2017-11-16T11:56:42.385Z,20.67
2017-11-16T11:59:09.890Z,20.10
2017-11-16T12:01:37.326Z,19.75
2017-11-16T12:04:05.552Z,20.25
2017-11-16T12:06:32.985Z,19.52
2017-11-16T12:09:00.422Z,19.92
2017-11-16T12:11:27.888Z,19.00
2017-11-16T12:13:55.357Z,19.60
2017-11-16T12:16:22.799Z,19.33
2017-11-16T12:18:50.308Z,20.23
2017-11-16T12:21:17.761Z,20.02
2017-11-16T12:23:45.248Z,21.10
2017-11-16T12:26:12.716Z,20.35
2017-11-16T12:28:40.157Z,20.23
2017-11-16T12:31:08.374Z,19.95
2017-11-16T12:33:35.843Z,20.08
2017-11-16T12:36:03.345Z,20.90
2017-11-16T12:38:31.540Z,20.50
2017-11-16T12:40:59.005Z,20.77
2017-11-16T12:43:26.454Z,21.83
2017-11-16T12:45:53.921Z,20.92
2017-11-16T12:48:21.374Z,22.20
2017-11-16T12:50:48.822Z,23.00
2017-11-16T12:53:16.280Z,23.15
2017-11-16T12:55:43.740Z,23.20
2017-11-16T12:58:11.196Z,24.60
2017-11-16T13:00:38.659Z,24.70
2017-11-16T13:03:06.116Z,24.92
2017-11-16T13:05:33.574Z,23.70
2017-11-16T13:08:01.026Z,22.92
2017-11-16T13:10:28.473Z,22.62
2017-11-16T13:12:55.940Z,22.20
2017-11-16T13:15:23.408Z,23.27
2017-11-16T13:17:50.862Z,21.30
2017-11-16T13:20:18.323Z,21.35
2017-11-16T13:22:45.768Z,21.20
2017-11-16T13:25:13.207Z,20.55
2017-11-16T13:27:40.684Z,20.50
2017-11-16T13:30:08.133Z,20.70
2017-11-16T13:32:35.605Z,23.20
2017-11-16T13:35:03.053Z,22.50
2017-11-16T13:37:31.849Z,23.70
2017-11-16T13:39:59.283Z,24.08
2017-11-16T13:43:00.136Z,25.25
2017-11-16T13:45:27.584Z,25.27
2017-11-16T13:47:55.047Z,27.33
2017-11-16T13:50:22.629Z,25.55
2017-11-16T13:52:50.083Z,25.23
2017-11-16T13:55:17.749Z,24.37
2017-11-16T13:57:45.183Z,23.97
2017-11-16T14:00:12.743Z,22.17
2017-11-16T14:02:40.422Z,23.90
2017-11-16T14:05:07.999Z,23.70
2017-11-16T14:07:35.440Z,24.33
2017-11-16T14:10:02.884Z,24.45
2017-11-16T14:12:30.443Z,24.73
2017-11-16T14:14:57.939Z,24.23
2017-11-16T14:17:25.393Z,25.10
2017-11-16T14:19:52.877Z,25.17
2017-11-16T14:22:20.402Z,25.75
2017-11-16T14:24:47.936Z,26.73
2017-11-16T14:27:15.385Z,27.15
2017-11-16T14:29:42.852Z,29.60
2017-11-16T14:32:10.337Z,28.45
2017-11-16T14:34:37.972Z,28.12
2017-11-16T14:37:05.427Z,29.98
2017-11-16T14:39:33.061Z,30.30
2017-11-16T14:42:00.524Z,28.40
2017-11-16T14:44:27.944Z,28.62
2017-11-16T14:46:55.453Z,29.92
2017-11-16T14:49:23.043Z,29.92
2017-11-16T14:51:50.495Z,30.62
2017-11-16T14:54:18.711Z,28.77
2017-11-16T14:56:46.156Z,29.80
2017-11-16T14:59:13.621Z,29.55
2017-11-16T15:01:41.152Z,31.45
2017-11-16T15:04:09.418Z,29.53
2017-11-16T15:06:36.864Z,29.63
2017-11-16T15:09:04.327Z,30.55
2017-11-16T15:11:31.820Z,30.95
2017-11-16T15:13:59.269Z,31.77
2017-11-16T15:16:26.734Z,31.62
2017-11-16T15:18:54.231Z,32.58
2017-11-16T15:21:21.684Z,31.00
2017-11-16T15:23:49.144Z,31.10
2017-11-16T15:26:16.599Z,29.23
2017-11-16T15:28:44.059Z,30.58
2017-11-16T15:31:12.283Z,30.85
2017-11-16T15:33:39.799Z,31.10
2017-11-16T15:36:07.251Z,31.48
2017-11-16T15:38:34.796Z,30.05
2017-11-16T15:41:02.240Z,30.37
2017-11-16T15:43:29.675Z,30.80
2017-11-16T15:45:57.131Z,30.10
2017-11-16T15:48:24.575Z,31.67
2017-11-16T15:50:52.036Z,30.40
2017-11-16T15:53:19.507Z,30.52
2017-11-16T15:55:46.992Z,31.20
2017-11-16T15:58:14.458Z,30.10
2017-11-16T16:00:41.912Z,30.30
2017-11-16T16:03:09.389Z,30.62
2017-11-16T16:05:36.994Z,32.37
2017-11-16T16:08:04.536Z,32.97
2017-11-16T16:10:32.015Z,32.20
2017-11-16T16:12:59.472Z,31.80
2017-11-16T16:15:26.977Z,31.75
2017-11-16T16:17:54.468Z,33.58
2017-11-16T16:20:21.918Z,34.30
2017-11-16T16:22:50.199Z,32.17
2017-11-16T16:25:17.712Z,31.40
2017-11-16T16:27:45.172Z,34.33
2017-11-16T16:30:12.624Z,35.63
2017-11-16T16:32:40.076Z,34.65
2017-11-16T16:35:07.649Z,31.35
2017-11-16T16:37:35.119Z,33.33
2017-11-16T16:40:03.425Z,32.80
2017-11-16T16:42:30.876Z,31.25
2017-11-16T16:44:58.321Z,33.15
2017-11-16T16:47:25.808Z,31.27
2017-11-16T16:49:53.260Z,30.88
2017-11-16T16:52:20.707Z,30.03
2017-11-16T16:54:48.172Z,31.27
2017-11-16T16:57:16.494Z,31.17
2017-11-16T16:59:44.049Z,32.70
2017-11-16T17:02:11.500Z,32.15
2017-11-16T17:04:39.003Z,32.08
2017-11-16T17:07:07.342Z,33.65
2017-11-16T17:09:34.857Z,32.60
2017-11-16T17:12:03.165Z,33.60
2017-11-16T17:14:30.597Z,32.28
2017-11-16T17:16:58.067Z,33.30
2017-11-16T17:19:25.511Z,31.30
2017-11-16T17:21:53.066Z,32.22
2017-11-16T17:24:20.533Z,30.65
2017-11-16T17:26:47.984Z,32.22
2017-11-16T17:29:15.493Z,31.75
2017-11-16T17:31:42.947Z,31.10
2017-11-16T17:34:10.491Z,31.75
2017-11-16T17:36:38.065Z,32.28
2017-11-16T17:39:05.514Z,32.30
2017-11-16T17:41:33.042Z,32.35
2017-11-16T17:44:00.594Z,32.30
2017-11-16T17:46:28.172Z,30.77
2017-11-16T17:48:55.774Z,33.05
2017-11-16T17:51:23.228Z,32.65
2017-11-16T17:53:51.462Z,31.42
2017-11-16T17:56:18.929Z,33.80
2017-11-16T17:58:46.367Z,32.05
2017-11-16T18:01:13.821Z,31.10
2017-11-16T18:03:41.278Z,33.15
2017-11-16T18:06:08.762Z,33.47
2017-11-16T18:08:36.309Z,32.47
2017-11-16T18:11:03.753Z,35.15
2017-11-16T18:13:31.224Z,34.60
2017-11-16T18:15:58.780Z,34.00
2017-11-16T18:18:26.250Z,35.75
2017-11-16T18:20:53.773Z,35.07
2017-11-16T18:23:21.363Z,35.70
2017-11-16T18:25:48.822Z,34.92
2017-11-16T18:28:16.290Z,35.75
2017-11-16T18:30:44.559Z,35.33
2017-11-16T18:33:12.019Z,36.30
2017-11-16T18:35:39.576Z,37.05
2017-11-16T18:38:07.027Z,36.25
2017-11-16T18:40:34.484Z,38.70
2017-11-16T18:43:02.140Z,39.20
2017-11-16T18:45:29.700Z,39.38
2017-11-16T18:47:57.132Z,38.90
2017-11-16T18:50:24.620Z,38.85
2017-11-16T18:52:52.077Z,37.88
2017-11-16T18:55:19.536Z,39.42
2017-11-16T18:57:46.993Z,38.92
2017-11-16T19:00:15.325Z,38.92
2017-11-16T19:02:42.768Z,40.15
2017-11-16T19:05:10.276Z,41.03
2017-11-16T19:07:39.248Z,40.10
2017-11-16T19:10:06.719Z,40.65
2017-11-16T19:12:34.165Z,40.65
2017-11-16T19:15:01.647Z,39.50
2017-11-16T19:17:29.144Z,40.60
2017-11-16T19:19:56.604Z,39.42
2017-11-16T19:22:24.037Z,41.10
2017-11-16T19:24:51.509Z,40.53
2017-11-16T19:27:19.026Z,40.67
2017-11-16T19:29:46.697Z,42.72
2017-11-16T19:32:14.921Z,42.38
2017-11-16T19:34:42.401Z,41.75
2017-11-16T19:37:09.901Z,40.95
2017-11-16T19:39:37.420Z,41.53
2017-11-16T19:42:04.898Z,41.72
2017-11-16T19:44:32.364Z,43.38
2017-11-16T19:47:00.583Z,44.15
2017-11-16T19:49:28.044Z,42.62
2017-11-16T19:51:55.513Z,44.22
2017-11-16T19:54:23.037Z,42.33
2017-11-16T19:56:50.510Z,42.00
2017-11-16T19:59:17.979Z,43.70
2017-11-16T20:01:45.442Z,44.27
2017-11-16T20:04:12.893Z,43.72
2017-11-16T20:06:40.327Z,41.60
2017-11-16T20:09:07.809Z,43.22
2017-11-16T20:11:35.302Z,42.08
2017-11-16T20:14:03.514Z,43.05
2017-11-16T20:16:30.955Z,40.90
2017-11-16T20:18:58.442Z,44.78
2017-11-16T20:21:26.088Z,42.08
2017-11-16T20:23:53.548Z,45.10
2017-11-16T20:26:21.070Z,42.38
2017-11-16T20:28:49.284Z,42.83
2017-11-16T20:31:16.745Z,42.60
2017-11-16T20:33:44.224Z,42.53
2017-11-16T20:36:11.663Z,42.70
2017-11-16T20:38:54.920Z,46.30
2017-11-16T20:41:28.163Z,44.30
2017-11-16T20:47:00.657Z,46.90
2017-11-16T20:49:33.795Z,46.00
2017-11-16T20:52:01.239Z,47.92
2017-11-16T20:54:28.740Z,45.50
2017-11-16T20:56:56.195Z,44.75
2017-11-16T20:59:24.418Z,47.50
2017-11-16T21:01:51.887Z,48.30
2017-11-16T21:04:19.335Z,47.78
2017-11-16T21:06:46.832Z,47.60
2017-11-16T21:09:15.090Z,47.47
2017-11-16T21:11:42.570Z,44.33
2017-11-16T21:14:10.021Z,46.85
2017-11-16T21:16:38.271Z,46.35
2017-11-16T21:19:05.743Z,47.83
2017-11-16T21:21:33.254Z,48.50
2017-11-16T21:24:00.717Z,46.58
2017-11-16T21:26:28.143Z,45.33
2017-11-16T21:28:55.603Z,46.80
2017-11-16T21:31:23.154Z,46.92
2017-11-16T21:33:50.649Z,47.70
2017-11-16T21:36:18.104Z,47.15
2017-11-16T21:38:45.559Z,46.65
2017-11-16T21:41:13.120Z,49.17
2017-11-16T21:43:40.576Z,49.05
2017-11-16T21:46:08.051Z,46.90
2017-11-16T21:48:35.510Z,48.95
2017-11-16T21:51:03.041Z,49.72
2017-11-16T21:53:30.622Z,46.70
2017-11-16T21:55:58.085Z,47.23
2017-11-16T21:58:25.527Z,48.95
2017-11-16T22:00:53.087Z,50.58
2017-11-16T22:03:20.545Z,51.25
2017-11-16T22:05:48.248Z,50.65
2017-11-16T22:08:15.668Z,51.50
2017-11-16T22:10:43.206Z,53.05
2017-11-16T22:13:10.668Z,50.75
2017-11-16T22:15:38.126Z,50.20
2017-11-16T22:18:05.568Z,50.12
2017-11-16T22:20:33.012Z,51.15
2017-11-16T22:23:00.513Z,51.72
2017-11-16T22:25:27.995Z,51.10
2017-11-16T22:27:56.223Z,50.92
2017-11-16T22:30:23.685Z,49.72
2017-11-16T22:32:51.143Z,50.25
2017-11-16T22:35:18.607Z,42.25
2017-11-16T22:37:46.080Z,28.20
2017-11-16T22:40:14.434Z,23.60
2017-11-16T22:42:41.997Z,21.10
2017-11-16T22:45:09.473Z,18.70
2017-11-16T22:47:37.018Z,18.00
2017-11-16T22:50:04.577Z,14.82
2017-11-16T22:52:32.130Z,14.57
2017-11-16T22:54:59.655Z,11.25
2017-11-16T22:57:27.126Z,8.60
2017-11-16T22:59:54.664Z,8.95
2017-11-16T23:02:22.122Z,7.10
2017-11-16T23:04:49.568Z,6.80
2017-11-16T23:07:17.012Z,6.23
2017-11-16T23:09:44.509Z,6.05
2017-11-16T23:12:12.194Z,6.53
2017-11-16T23:14:40.446Z,5.40
2017-11-16T23:17:07.877Z,4.93
2017-11-16T23:19:35.491Z,4.80
2017-11-16T23:22:03.127Z,4.65
2017-11-16T23:24:30.567Z,4.60
2017-11-16T23:26:58.017Z,4.20
2017-11-16T23:29:25.716Z,3.85
2017-11-16T23:31:53.176Z,3.97
2017-11-16T23:34:20.815Z,3.83
2017-11-16T23:36:48.264Z,4.30
2017-11-16T23:39:15.716Z,3.50
2017-11-16T23:41:43.294Z,3.65
2017-11-16T23:44:10.728Z,3.90
2017-11-16T23:46:38.177Z,4.20
2017-11-16T23:49:05.624Z,4.00
2017-11-16T23:51:33.044Z,4.40
2017-11-16T23:54:01.315Z,3.72
2017-11-16T23:56:29.647Z,3.78
2017-11-16T23:58:57.106Z,3.80
